Time;durP1;ratioP1;P1;durP2;ratioP2;P2;SDS_P1;SDS_P2;PMS_P1;PMS_P2;Temp;Humidity;BMP_temperature;BMP_pressure;BME280_temperature;BME280_humidity;BME280_pressure;Samples;Min_cycle;Max_cycle;Signal;HPM_P1;HPM_P2
2022/09/24 00:01:12;;;;;;;9.83;4.70;;;;;;;;;;4342800;33;20239;-52
2022/09/24 00:03:40;;;;;;;24.83;17.93;;;;;;;;;;4342829;33;20269;-52
2022/09/24 00:06:09;;;;;;;26.90;23.50;;;;;;;;;;4343113;33;20333;-53
2022/09/24 00:08:36;;;;;;;20.80;12.83;;;;;;;;;;4343000;33;20391;-52
2022/09/24 00:11:05;;;;;;;11.73;8.87;;;;;;;;;;4342726;33;20280;-52
2022/09/24 00:13:33;;;;;;;13.77;8.13;;;;;;;;;;4343732;33;20218;-52
2022/09/24 00:16:04;;;;;;;14.37;7.50;;;;;;;;;;4343361;33;20593;-52
2022/09/24 00:18:32;;;;;;;12.10;7.17;;;;;;;;;;4343140;33;20365;-52
2022/09/24 00:20:59;;;;;;;10.80;7.97;;;;;;;;;;4343095;33;20365;-52
2022/09/24 00:23:26;;;;;;;14.80;8.53;;;;;;;;;;4343942;33;20286;-51
2022/09/24 00:28:37;;;;;;;18.60;8.37;;;;;;;;;;4346190;33;20221;-52
2022/09/24 00:31:06;;;;;;;11.50;8.10;;;;;;;;;;4345672;33;21142;-51
2022/09/24 00:33:35;;;;;;;10.50;7.67;;;;;;;;;;4345665;33;20280;-53
2022/09/24 00:36:04;;;;;;;10.93;7.10;;;;;;;;;;4345912;33;20654;-51
2022/09/24 00:38:31;;;;;;;9.43;5.80;;;;;;;;;;4345814;33;20286;-52
2022/09/24 00:40:58;;;;;;;8.37;5.30;;;;;;;;;;4345719;33;20203;-52
2022/09/24 00:43:27;;;;;;;8.77;5.37;;;;;;;;;;4345615;33;20249;-51
2022/09/24 00:45:57;;;;;;;7.17;4.33;;;;;;;;;;4345925;33;20268;-51
2022/09/24 00:48:24;;;;;;;6.60;4.97;;;;;;;;;;4343950;33;20751;-52
2022/09/24 00:50:53;;;;;;;8.37;5.73;;;;;;;;;;4331153;33;20309;-51
2022/09/24 00:53:22;;;;;;;16.10;4.50;;;;;;;;;;4330871;33;20635;-51
2022/09/24 00:55:54;;;;;;;8.20;5.10;;;;;;;;;;4331015;33;20250;-52
2022/09/24 00:58:23;;;;;;;11.60;5.73;;;;;;;;;;4330678;33;20341;-52
2022/09/24 01:00:52;;;;;;;5.83;4.83;;;;;;;;;;4330637;33;20282;-52
2022/09/24 01:03:22;;;;;;;8.03;4.77;;;;;;;;;;4330754;33;20301;-51
2022/09/24 01:05:50;;;;;;;7.07;5.07;;;;;;;;;;4333515;33;20706;-51
2022/09/24 01:08:20;;;;;;;6.40;4.97;;;;;;;;;;4344826;33;20615;-52
2022/09/24 01:11:10;;;;;;;8.00;4.77;;;;;;;;;;4345182;33;20231;-52
2022/09/24 01:14:05;;;;;;;7.00;5.73;;;;;;;;;;4345387;33;20268;-52
2022/09/24 01:16:42;;;;;;;10.23;5.30;;;;;;;;;;4326206;33;21003;-52
2022/09/24 01:19:28;;;;;;;7.60;5.37;;;;;;;;;;4345493;33;20285;-52
2022/09/24 01:21:58;;;;;;;8.83;5.77;;;;;;;;;;4345484;33;20322;-51
2022/09/24 01:24:50;;;;;;;7.63;5.47;;;;;;;;;;4344972;33;20214;-51
2022/09/24 01:27:21;;;;;;;10.20;5.83;;;;;;;;;;4345168;33;20238;-52
2022/09/24 01:30:03;;;;;;;9.90;4.60;;;;;;;;;;4345384;33;20203;-52
2022/09/24 01:32:36;;;;;;;6.47;5.10;;;;;;;;;;4345003;33;20265;-52
2022/09/24 01:35:12;;;;;;;7.23;5.20;;;;;;;;;;4345059;33;20254;-52
2022/09/24 01:37:44;;;;;;;8.00;5.03;;;;;;;;;;4344972;33;20317;-52
2022/09/24 01:40:12;;;;;;;7.57;5.40;;;;;;;;;;4339592;33;20252;-52
2022/09/24 01:42:42;;;;;;;7.90;5.23;;;;;;;;;;4345117;33;20462;-52
2022/09/24 01:45:11;;;;;;;7.03;5.70;;;;;;;;;;4345220;33;20215;-52
2022/09/24 01:47:40;;;;;;;17.70;5.47;;;;;;;;;;4345183;33;20337;-52
2022/09/24 01:50:09;;;;;;;10.47;5.40;;;;;;;;;;4344856;33;20246;-54
2022/09/24 01:52:42;;;;;;;6.87;4.97;;;;;;;;;;4344685;33;20239;-52
2022/09/24 01:55:13;;;;;;;8.50;5.83;;;;;;;;;;4345199;33;20229;-52
2022/09/24 01:57:43;;;;;;;9.67;6.33;;;;;;;;;;4345325;33;20234;-52
2022/09/24 02:00:14;;;;;;;8.67;5.50;;;;;;;;;;4345316;33;20241;-52
2022/09/24 02:02:47;;;;;;;8.67;6.00;;;;;;;;;;4344514;33;20267;-52
2022/09/24 02:05:19;;;;;;;6.87;6.13;;;;;;;;;;4343604;33;20264;-52
2022/09/24 02:07:57;;;;;;;9.13;5.27;;;;;;;;;;4329483;33;20773;-54
2022/09/24 02:10:24;;;;;;;7.40;4.87;;;;;;;;;;4338834;33;20635;-51
2022/09/24 02:12:55;;;;;;;7.10;5.23;;;;;;;;;;4344751;33;20252;-51
2022/09/24 02:15:28;;;;;;;7.20;4.87;;;;;;;;;;4344859;33;20245;-51
2022/09/24 02:17:59;;;;;;;6.23;5.27;;;;;;;;;;4344247;33;20647;-51
2022/09/24 02:20:29;;;;;;;7.47;5.93;;;;;;;;;;4344698;33;20587;-51
2022/09/24 02:22:57;;;;;;;9.37;6.57;;;;;;;;;;4344395;33;20314;-51
2022/09/24 02:25:29;;;;;;;9.93;6.70;;;;;;;;;;4344431;33;20278;-52
2022/09/24 02:27:56;;;;;;;17.63;10.13;;;;;;;;;;4344570;33;20239;-52
2022/09/24 02:30:25;;;;;;;29.13;12.40;;;;;;;;;;4343969;33;20754;-52
2022/09/24 02:32:54;;;;;;;27.50;13.83;;;;;;;;;;4344330;33;20307;-52
2022/09/24 02:35:20;;;;;;;21.67;12.00;;;;;;;;;;4344042;33;20563;-52
2022/09/24 02:37:47;;;;;;;15.97;10.83;;;;;;;;;;4344251;33;20251;-52
2022/09/24 02:40:15;;;;;;;21.53;11.13;;;;;;;;;;4344593;33;20254;-52
2022/09/24 02:42:42;;;;;;;17.83;9.83;;;;;;;;;;4344225;33;20322;-51
2022/09/24 02:45:10;;;;;;;26.43;13.20;;;;;;;;;;4338095;33;20297;-51
2022/09/24 02:47:38;;;;;;;22.00;11.43;;;;;;;;;;4343431;33;20242;-52
2022/09/24 02:50:06;;;;;;;29.93;12.20;;;;;;;;;;4331956;33;20286;-53
2022/09/24 02:52:33;;;;;;;25.30;11.43;;;;;;;;;;4329190;33;20418;-52
2022/09/24 02:55:00;;;;;;;30.83;12.07;;;;;;;;;;4329308;33;20207;-52
2022/09/24 02:57:27;;;;;;;13.50;7.57;;;;;;;;;;4329266;33;20663;-52
2022/09/24 02:59:54;;;;;;;11.47;7.33;;;;;;;;;;4341612;33;20227;-52
2022/09/24 03:02:21;;;;;;;10.20;6.00;;;;;;;;;;4343915;33;20253;-51
2022/09/24 03:04:50;;;;;;;9.67;7.00;;;;;;;;;;4343877;33;20215;-52
2022/09/24 03:07:17;;;;;;;9.93;6.27;;;;;;;;;;4342923;33;20774;-52
2022/09/24 03:09:44;;;;;;;8.50;5.53;;;;;;;;;;4343640;33;20218;-52
2022/09/24 03:12:11;;;;;;;15.50;8.00;;;;;;;;;;4343666;33;20250;-52
2022/09/24 03:14:38;;;;;;;10.93;6.93;;;;;;;;;;4344021;33;20742;-52
2022/09/24 03:17:05;;;;;;;14.57;7.20;;;;;;;;;;4343490;33;20239;-51
2022/09/24 03:19:32;;;;;;;7.07;5.40;;;;;;;;;;4343883;33;20237;-51
2022/09/24 03:22:00;;;;;;;7.07;5.00;;;;;;;;;;4343119;33;20711;-52
2022/09/24 03:24:27;;;;;;;6.73;4.17;;;;;;;;;;4343471;33;20670;-52
2022/09/24 03:26:54;;;;;;;7.97;5.23;;;;;;;;;;4343567;33;20427;-52
2022/09/24 03:30:58;;;;;;;12.47;6.60;;;;;;;;;;4343643;33;20229;-52
2022/09/24 03:32:06;;;;;;;19.00;7.90;;;;;;;;;;4343393;33;20239;-51
2022/09/24 03:34:33;;;;;;;20.60;7.20;;;;;;;;;;4343520;33;20336;-51
2022/09/24 03:37:01;;;;;;;14.37;7.77;;;;;;;;;;4343118;33;20265;-51
2022/09/24 03:39:28;;;;;;;16.57;9.63;;;;;;;;;;4343320;33;20714;-52
2022/09/24 03:41:55;;;;;;;14.00;8.07;;;;;;;;;;4343267;33;20242;-52
2022/09/24 03:44:22;;;;;;;17.30;9.40;;;;;;;;;;4343756;33;20771;-52
2022/09/24 03:46:49;;;;;;;17.77;10.03;;;;;;;;;;4343211;33;20692;-52
2022/09/24 03:49:17;;;;;;;13.77;9.57;;;;;;;;;;4350084;32;20286;-51
2022/09/24 03:51:43;;;;;;;13.23;8.93;;;;;;;;;;4357845;32;20376;-53
2022/09/24 03:54:12;;;;;;;13.53;9.30;;;;;;;;;;4357317;32;20222;-52
2022/09/24 03:56:39;;;;;;;18.17;10.17;;;;;;;;;;4343314;33;20322;-51
2022/09/24 03:59:06;;;;;;;17.00;10.87;;;;;;;;;;4343007;33;20215;-51
2022/09/24 04:01:36;;;;;;;18.33;11.30;;;;;;;;;;4342764;33;20671;-51
2022/09/24 04:04:03;;;;;;;36.10;15.40;;;;;;;;;;4343396;33;20239;-50
2022/09/24 04:06:30;;;;;;;29.03;15.10;;;;;;;;;;4342554;33;20277;-51
2022/09/24 04:08:57;;;;;;;25.80;14.37;;;;;;;;;;4343275;33;20238;-52
2022/09/24 04:11:25;;;;;;;27.60;13.77;;;;;;;;;;4342545;33;20246;-52
2022/09/24 04:13:52;;;;;;;23.97;14.47;;;;;;;;;;4343474;33;20289;-53
2022/09/24 04:16:19;;;;;;;24.23;13.77;;;;;;;;;;4342953;33;20267;-52
2022/09/24 04:18:46;;;;;;;18.93;13.13;;;;;;;;;;4343014;33;20243;-52
2022/09/24 04:21:13;;;;;;;24.00;13.87;;;;;;;;;;4342764;33;20286;-52
2022/09/24 04:23:40;;;;;;;19.93;12.30;;;;;;;;;;4343075;33;20599;-52
2022/09/24 04:26:07;;;;;;;18.23;11.30;;;;;;;;;;4343104;33;20671;-53
2022/09/24 04:28:35;;;;;;;21.93;12.33;;;;;;;;;;4343316;33;20285;-52
2022/09/24 04:31:02;;;;;;;21.33;11.27;;;;;;;;;;4342946;33;20207;-52
2022/09/24 04:33:29;;;;;;;24.40;13.30;;;;;;;;;;4342642;33;20226;-52
2022/09/24 04:35:56;;;;;;;28.23;15.97;;;;;;;;;;4342780;33;20681;-52
2022/09/24 04:38:23;;;;;;;21.17;15.33;;;;;;;;;;4342528;33;20290;-51
2022/09/24 04:40:49;;;;;;;33.83;16.83;;;;;;;;;;4343007;33;20236;-53
2022/09/24 04:43:17;;;;;;;20.73;12.83;;;;;;;;;;4343110;33;20345;-52
2022/09/24 04:45:46;;;;;;;18.93;11.17;;;;;;;;;;4342812;33;20349;-53
2022/09/24 04:48:13;;;;;;;18.60;11.20;;;;;;;;;;4342897;33;20258;-52
2022/09/24 04:50:40;;;;;;;17.40;11.33;;;;;;;;;;4357903;33;20716;-52
2022/09/24 04:53:07;;;;;;;21.53;10.20;;;;;;;;;;4357162;32;20638;-53
2022/09/24 04:55:35;;;;;;;23.50;12.47;;;;;;;;;;4357896;33;20614;-52
2022/09/24 04:58:02;;;;;;;19.80;11.77;;;;;;;;;;4354595;32;20227;-52
2022/09/24 05:00:32;;;;;;;16.77;11.63;;;;;;;;;;4342793;33;20659;-52
2022/09/24 05:03:02;;;;;;;17.03;10.60;;;;;;;;;;4342723;33;20238;-52
2022/09/24 05:05:29;;;;;;;19.77;11.70;;;;;;;;;;4340109;33;20227;-53
2022/09/24 05:07:57;;;;;;;20.37;12.77;;;;;;;;;;4327619;33;20247;-53
2022/09/24 05:10:24;;;;;;;23.97;12.43;;;;;;;;;;4329967;33;20224;-53
2022/09/24 05:12:51;;;;;;;19.10;11.57;;;;;;;;;;4317234;33;20313;-52
2022/09/24 05:15:19;;;;;;;14.63;10.50;;;;;;;;;;4330847;33;20231;-52
2022/09/24 05:17:46;;;;;;;15.80;9.30;;;;;;;;;;4330247;33;20258;-53
2022/09/24 05:20:16;;;;;;;13.23;9.37;;;;;;;;;;4330802;33;20216;-52
2022/09/24 05:22:43;;;;;;;14.90;10.33;;;;;;;;;;4330197;33;20305;-51
2022/09/24 05:25:11;;;;;;;13.43;9.77;;;;;;;;;;4330347;33;20302;-52
2022/09/24 05:27:37;;;;;;;20.10;10.50;;;;;;;;;;4330119;33;20263;-51
2022/09/24 05:30:05;;;;;;;16.97;11.20;;;;;;;;;;4330732;33;20620;-51
2022/09/24 05:32:32;;;;;;;17.97;10.47;;;;;;;;;;4330394;33;20242;-51
2022/09/24 05:34:59;;;;;;;16.80;10.40;;;;;;;;;;4330547;33;20727;-52
2022/09/24 05:37:27;;;;;;;15.07;11.17;;;;;;;;;;4330163;33;20250;-52
2022/09/24 05:39:56;;;;;;;16.53;11.33;;;;;;;;;;4330729;33;20304;-52
2022/09/24 05:42:23;;;;;;;21.90;11.37;;;;;;;;;;4329999;33;20273;-52
2022/09/24 05:44:50;;;;;;;21.23;11.60;;;;;;;;;;4329843;33;20226;-52
2022/09/24 05:47:17;;;;;;;16.40;11.20;;;;;;;;;;4333963;33;20235;-51
2022/09/24 05:49:43;;;;;;;18.50;11.93;;;;;;;;;;4354391;32;20230;-52
2022/09/24 05:52:10;;;;;;;20.93;11.60;;;;;;;;;;4358918;32;20260;-51
2022/09/24 05:54:39;;;;;;;15.63;10.60;;;;;;;;;;4359547;32;20288;-52
2022/09/24 05:57:05;;;;;;;22.27;11.97;;;;;;;;;;4359293;32;20327;-51
2022/09/24 05:59:32;;;;;;;17.40;11.87;;;;;;;;;;4359445;32;20207;-52
2022/09/24 06:01:59;;;;;;;21.07;10.80;;;;;;;;;;4359116;32;20321;-51
2022/09/24 06:04:26;;;;;;;15.73;10.10;;;;;;;;;;4359275;32;20241;-51
2022/09/24 06:06:53;;;;;;;15.70;10.07;;;;;;;;;;4347641;32;20321;-52
2022/09/24 06:09:20;;;;;;;11.73;9.27;;;;;;;;;;4345084;33;20227;-53
2022/09/24 06:11:52;;;;;;;12.73;9.23;;;;;;;;;;4344670;33;20242;-53
2022/09/24 06:14:19;;;;;;;11.27;8.93;;;;;;;;;;4345013;33;20239;-52
2022/09/24 06:16:46;;;;;;;16.37;9.70;;;;;;;;;;4344162;33;20250;-52
2022/09/24 06:19:13;;;;;;;13.17;8.60;;;;;;;;;;4344333;33;20366;-52
2022/09/24 06:21:40;;;;;;;15.57;9.23;;;;;;;;;;4342944;33;20252;-52
2022/09/24 06:24:07;;;;;;;15.77;9.70;;;;;;;;;;4344681;33;20273;-52
2022/09/24 06:26:35;;;;;;;17.60;9.90;;;;;;;;;;4344247;33;20252;-52
2022/09/24 06:29:03;;;;;;;17.03;9.73;;;;;;;;;;4344688;33;20293;-52
2022/09/24 06:31:30;;;;;;;13.53;10.27;;;;;;;;;;4343976;32;20321;-52
2022/09/24 06:33:57;;;;;;;15.03;9.40;;;;;;;;;;4344612;33;20334;-52
2022/09/24 06:36:24;;;;;;;17.50;11.13;;;;;;;;;;4344170;33;20251;-52
2022/09/24 06:38:51;;;;;;;16.93;12.60;;;;;;;;;;4344673;33;20223;-52
2022/09/24 06:41:18;;;;;;;20.27;14.50;;;;;;;;;;4343994;33;20262;-53
2022/09/24 06:43:45;;;;;;;25.63;14.50;;;;;;;;;;4344049;32;20264;-52
2022/09/24 06:46:14;;;;;;;20.80;13.50;;;;;;;;;;4344318;33;20720;-53
2022/09/24 06:48:41;;;;;;;18.33;13.17;;;;;;;;;;4347113;32;20309;-54
2022/09/24 06:51:08;;;;;;;17.60;10.10;;;;;;;;;;4352182;32;20254;-52
2022/09/24 06:53:35;;;;;;;15.40;10.27;;;;;;;;;;4343773;33;20265;-53
2022/09/24 06:56:03;;;;;;;14.87;10.20;;;;;;;;;;4343942;33;20237;-52
2022/09/24 06:58:30;;;;;;;15.10;8.53;;;;;;;;;;4344142;33;20297;-52
2022/09/24 07:00:59;;;;;;;16.60;12.70;;;;;;;;;;4343887;33;20729;-53
2022/09/24 07:03:28;;;;;;;25.97;10.83;;;;;;;;;;4343863;33;20317;-52
2022/09/24 07:05:55;;;;;;;8.63;7.53;;;;;;;;;;4338186;33;20242;-52
2022/09/24 07:08:23;;;;;;;8.07;6.97;;;;;;;;;;4329018;33;20600;-52
2022/09/24 07:10:51;;;;;;;11.30;6.23;;;;;;;;;;4328864;33;20701;-52
2022/09/24 07:13:20;;;;;;;11.53;6.63;;;;;;;;;;4328758;33;20847;-53
2022/09/24 07:15:48;;;;;;;12.33;7.13;;;;;;;;;;4328758;33;20296;-51
2022/09/24 07:18:15;;;;;;;8.80;7.30;;;;;;;;;;4328739;33;20239;-53
2022/09/24 07:20:43;;;;;;;9.90;7.60;;;;;;;;;;4328309;33;20252;-52
2022/09/24 07:23:12;;;;;;;9.57;7.20;;;;;;;;;;4328591;33;20265;-53
2022/09/24 07:25:39;;;;;;;15.77;7.27;;;;;;;;;;4329075;33;20548;-54
2022/09/24 07:28:08;;;;;;;9.13;6.27;;;;;;;;;;4328472;33;20575;-53
2022/09/24 07:30:36;;;;;;;8.67;6.87;;;;;;;;;;4329109;33;20290;-53
2022/09/24 07:33:03;;;;;;;10.50;6.50;;;;;;;;;;4328210;33;20264;-53
2022/09/24 07:35:30;;;;;;;9.83;7.43;;;;;;;;;;4328422;33;20301;-52
2022/09/24 07:38:00;;;;;;;20.53;7.00;;;;;;;;;;4328630;33;20655;-53
2022/09/24 07:40:28;;;;;;;11.83;7.70;;;;;;;;;;4336715;33;20242;-52
2022/09/24 07:42:55;;;;;;;9.00;7.17;;;;;;;;;;4343241;33;20604;-52
2022/09/24 07:45:23;;;;;;;12.93;7.67;;;;;;;;;;4343630;33;20257;-52
2022/09/24 07:47:57;;;;;;;14.70;6.70;;;;;;;;;;4351601;32;20727;-52
2022/09/24 07:50:24;;;;;;;13.20;6.10;;;;;;;;;;4358380;32;20288;-53
2022/09/24 07:52:51;;;;;;;11.90;6.07;;;;;;;;;;4357933;32;20284;-53
2022/09/24 07:55:20;;;;;;;9.17;6.90;;;;;;;;;;4357650;32;20635;-54
2022/09/24 07:57:47;;;;;;;11.13;7.23;;;;;;;;;;4357532;32;20592;-53
2022/09/24 08:00:16;;;;;;;10.43;5.77;;;;;;;;;;4357683;32;20580;-53
2022/09/24 08:02:43;;;;;;;7.50;5.87;;;;;;;;;;4357687;32;20327;-52
2022/09/24 08:05:11;;;;;;;11.13;7.10;;;;;;;;;;4356720;32;20791;-52
2022/09/24 08:07:38;;;;;;;8.97;6.77;;;;;;;;;;4342820;33;20274;-53
2022/09/24 08:10:05;;;;;;;10.57;6.17;;;;;;;;;;4342747;33;20240;-53
2022/09/24 08:12:34;;;;;;;11.37;5.90;;;;;;;;;;4342969;33;20262;-52
2022/09/24 08:15:00;;;;;;;19.37;5.93;;;;;;;;;;4342633;33;20277;-53
2022/09/24 08:17:27;;;;;;;11.70;5.93;;;;;;;;;;4342663;33;20580;-53
2022/09/24 08:19:55;;;;;;;8.47;5.77;;;;;;;;;;4342854;33;20222;-54
2022/09/24 08:22:23;;;;;;;9.37;4.93;;;;;;;;;;4342758;33;20678;-51
2022/09/24 08:24:50;;;;;;;7.67;5.23;;;;;;;;;;4343017;33;20227;-52
2022/09/24 08:27:19;;;;;;;5.43;4.23;;;;;;;;;;4342725;33;20254;-52
2022/09/24 08:29:47;;;;;;;7.00;5.97;;;;;;;;;;4343244;33;20301;-54
2022/09/24 08:32:14;;;;;;;6.43;5.00;;;;;;;;;;4342563;33;20263;-53
2022/09/24 08:34:41;;;;;;;7.23;5.00;;;;;;;;;;4342563;33;20236;-53
2022/09/24 08:37:08;;;;;;;6.80;4.77;;;;;;;;;;4342227;33;20275;-53
2022/09/24 08:39:35;;;;;;;6.37;5.20;;;;;;;;;;4343239;33;20737;-52
2022/09/24 08:42:04;;;;;;;6.23;4.23;;;;;;;;;;4342806;33;20520;-52
2022/09/24 08:47:36;;;;;;;9.33;4.73;;;;;;;;;;4345293;33;20269;-53
2022/09/24 08:50:09;;;;;;;6.90;4.57;;;;;;;;;;4356792;32;20218;-52
2022/09/24 08:52:49;;;;;;;5.77;4.73;;;;;;;;;;4360624;32;20284;-52
2022/09/24 08:55:20;;;;;;;13.07;4.73;;;;;;;;;;4361093;32;20278;-51
2022/09/24 08:57:57;;;;;;;8.27;4.50;;;;;;;;;;4360363;32;20272;-53
2022/09/24 09:00:24;;;;;;;7.33;5.03;;;;;;;;;;4360741;32;20218;-53
2022/09/24 09:03:01;;;;;;;7.00;4.40;;;;;;;;;;4360227;32;20665;-52
2022/09/24 09:05:48;;;;;;;8.90;5.00;;;;;;;;;;4355287;32;20297;-53
2022/09/24 09:08:23;;;;;;;8.43;4.87;;;;;;;;;;4331103;33;20211;-53
2022/09/24 09:10:57;;;;;;;12.30;5.03;;;;;;;;;;4331323;33;20223;-52
2022/09/24 09:13:28;;;;;;;15.43;5.20;;;;;;;;;;4331000;33;20340;-53
2022/09/24 09:16:06;;;;;;;6.43;4.87;;;;;;;;;;4330820;33;20615;-53
2022/09/24 09:18:40;;;;;;;7.90;5.07;;;;;;;;;;4330957;33;20223;-53
2022/09/24 09:21:15;;;;;;;8.30;4.93;;;;;;;;;;4330010;33;20544;-53
2022/09/24 09:23:47;;;;;;;23.50;8.53;;;;;;;;;;4330795;33;20241;-53
2022/09/24 09:26:17;;;;;;;14.03;7.07;;;;;;;;;;4330798;33;20252;-53
2022/09/24 09:28:44;;;;;;;4.33;3.90;;;;;;;;;;4330814;33;20219;-52
2022/09/24 09:31:20;;;;;;;6.40;4.60;;;;;;;;;;4329975;33;20253;-52
2022/09/24 09:33:59;;;;;;;4.23;3.63;;;;;;;;;;4343356;33;20226;-52
2022/09/24 09:36:44;;;;;;;6.33;3.83;;;;;;;;;;4344527;33;20238;-52
2022/09/24 09:39:22;;;;;;;10.47;3.97;;;;;;;;;;4345092;33;20229;-54
2022/09/24 09:41:56;;;;;;;5.50;3.70;;;;;;;;;;4345373;33;20260;-52
2022/09/24 09:44:26;;;;;;;3.85;3.10;;;;;;;;;;4345235;33;20639;-53
2022/09/24 09:47:00;;;;;;;8.88;3.75;;;;;;;;;;4344663;33;20260;-53
2022/09/24 09:49:33;;;;;;;7.85;3.55;;;;;;;;;;4352904;32;20231;-53
2022/09/24 09:52:04;;;;;;;3.90;2.90;;;;;;;;;;4359777;32;20349;-52
2022/09/24 09:54:37;;;;;;;5.77;4.40;;;;;;;;;;4359826;32;20296;-52
2022/09/24 09:57:06;;;;;;;9.73;3.07;;;;;;;;;;4359112;32;20280;-53
2022/09/24 09:59:34;;;;;;;3.93;2.90;;;;;;;;;;4360069;32;20277;-53
2022/09/24 10:02:01;;;;;;;5.22;3.33;;;;;;;;;;4359435;32;20229;-52
2022/09/24 10:04:38;;;;;;;7.53;2.87;;;;;;;;;;4359501;32;20297;-52
2022/09/24 10:07:09;;;;;;;4.67;3.33;;;;;;;;;;4346896;32;20227;-53
2022/09/24 10:09:36;;;;;;;3.77;3.00;;;;;;;;;;4345037;33;20318;-54
2022/09/24 10:12:08;;;;;;;7.73;3.40;;;;;;;;;;4344337;33;20238;-54
2022/09/24 10:14:35;;;;;;;4.60;3.43;;;;;;;;;;4344645;33;20298;-54
2022/09/24 10:17:04;;;;;;;5.35;2.80;;;;;;;;;;4344153;33;20306;-53
2022/09/24 10:19:37;;;;;;;8.77;2.90;;;;;;;;;;4343989;33;20640;-53
2022/09/24 10:22:14;;;;;;;5.20;2.50;;;;;;;;;;4344190;33;20235;-54
2022/09/24 10:24:43;;;;;;;5.80;2.37;;;;;;;;;;4344790;33;20238;-54
2022/09/24 10:27:20;;;;;;;5.93;2.57;;;;;;;;;;4344356;33;20306;-53
2022/09/24 10:32:31;;;;;;;4.43;2.90;;;;;;;;;;4344416;33;20293;-52
2022/09/24 10:35:02;;;;;;;8.93;3.08;;;;;;;;;;4343819;33;20343;-53
2022/09/24 10:37:29;;;;;;;14.30;2.78;;;;;;;;;;4343994;33;20412;-53
2022/09/24 10:40:01;;;;;;;5.07;2.37;;;;;;;;;;4344316;33;20230;-52
2022/09/24 10:42:30;;;;;;;3.72;2.90;;;;;;;;;;4343936;33;20244;-53
2022/09/24 10:45:00;;;;;;;4.07;3.10;;;;;;;;;;4344015;33;20242;-53
2022/09/24 10:47:33;;;;;;;6.12;2.95;;;;;;;;;;4343967;33;20270;-53
2022/09/24 10:50:13;;;;;;;5.50;2.97;;;;;;;;;;4343667;33;20583;-54
2022/09/24 10:52:46;;;;;;;4.47;3.25;;;;;;;;;;4344185;33;20237;-53
2022/09/24 10:55:23;;;;;;;7.15;2.33;;;;;;;;;;4344202;33;20219;-53
2022/09/24 10:58:01;;;;;;;4.57;2.60;;;;;;;;;;4344046;33;20288;-53
2022/09/24 11:00:37;;;;;;;3.15;2.25;;;;;;;;;;4343689;33;20281;-54
2022/09/24 11:03:26;;;;;;;3.72;2.58;;;;;;;;;;4344059;33;20305;-53
2022/09/24 11:06:00;;;;;;;4.80;2.67;;;;;;;;;;4338541;33;20330;-54
2022/09/24 11:08:51;;;;;;;2.65;2.08;;;;;;;;;;4328952;33;20672;-53
2022/09/24 11:11:30;;;;;;;9.23;3.37;;;;;;;;;;4328610;33;20239;-53
2022/09/24 11:14:08;;;;;;;4.10;2.80;;;;;;;;;;4328835;33;20266;-53
2022/09/24 11:17:05;;;;;;;7.82;3.05;;;;;;;;;;4329006;33;20322;-53
2022/09/24 11:19:49;;;;;;;8.23;2.58;;;;;;;;;;4327451;33;20553;-53
2022/09/24 11:22:25;;;;;;;4.18;2.40;;;;;;;;;;4329052;33;20239;-53
2022/09/24 11:25:14;;;;;;;7.75;3.25;;;;;;;;;;4333384;33;20345;-53
2022/09/24 11:28:02;;;;;;;9.98;2.45;;;;;;;;;;4341502;33;20288;-52
2022/09/24 11:30:37;;;;;;;4.72;2.45;;;;;;;;;;4343274;33;20642;-52
2022/09/24 11:33:17;;;;;;;12.00;2.30;;;;;;;;;;4343083;33;20309;-53
2022/09/24 11:36:07;;;;;;;5.00;2.42;;;;;;;;;;4342904;33;20233;-54
2022/09/24 11:38:49;;;;;;;5.32;2.25;;;;;;;;;;4343306;33;20656;-53
2022/09/24 11:41:26;;;;;;;4.25;2.20;;;;;;;;;;4343244;33;20868;-53
2022/09/24 11:44:08;;;;;;;3.58;2.83;;;;;;;;;;4343284;33;20285;-53
2022/09/24 11:46:47;;;;;;;3.30;2.40;;;;;;;;;;4342717;33;20697;-53
2022/09/24 11:49:36;;;;;;;3.62;2.42;;;;;;;;;;4342968;33;20253;-54
2022/09/24 11:52:09;;;;;;;4.00;2.62;;;;;;;;;;4343302;33;20238;-55
2022/09/24 11:54:44;;;;;;;5.18;2.15;;;;;;;;;;4343505;33;20244;-53
2022/09/24 11:57:16;;;;;;;11.93;2.30;;;;;;;;;;4342838;33;20304;-54
2022/09/24 11:59:48;;;;;;;4.78;2.33;;;;;;;;;;4343173;33;20225;-53
2022/09/24 12:02:20;;;;;;;7.47;2.12;;;;;;;;;;4342708;33;20239;-53
2022/09/24 12:04:54;;;;;;;2.58;1.98;;;;;;;;;;4342817;33;20221;-53
2022/09/24 12:07:27;;;;;;;6.68;2.15;;;;;;;;;;4343057;33;20658;-53
2022/09/24 12:10:00;;;;;;;7.72;2.42;;;;;;;;;;4343321;33;20268;-54
2022/09/24 12:12:31;;;;;;;3.60;2.55;;;;;;;;;;4342812;33;20676;-54
2022/09/24 12:15:01;;;;;;;5.32;1.75;;;;;;;;;;4342882;33;20226;-53
2022/09/24 12:17:34;;;;;;;4.40;1.77;;;;;;;;;;4342730;33;20222;-53
2022/09/24 12:20:07;;;;;;;5.15;3.08;;;;;;;;;;4345528;33;20639;-53
2022/09/24 12:22:37;;;;;;;5.10;2.60;;;;;;;;;;4345426;33;20322;-54
2022/09/24 12:25:11;;;;;;;4.78;1.77;;;;;;;;;;4346193;33;20259;-54
2022/09/24 12:27:39;;;;;;;6.55;1.80;;;;;;;;;;4346265;33;20242;-53
2022/09/24 12:33:12;;;;;;;2.87;2.00;;;;;;;;;;4330769;33;20309;-53
2022/09/24 12:35:54;;;;;;;2.65;1.90;;;;;;;;;;4330846;33;20293;-54
2022/09/24 12:38:25;;;;;;;5.93;2.05;;;;;;;;;;4331273;33;20237;-54
2022/09/24 12:41:14;;;;;;;6.82;2.65;;;;;;;;;;4331345;33;20592;-54
2022/09/24 12:43:45;;;;;;;5.47;2.50;;;;;;;;;;4331500;33;20302;-53
2022/09/24 12:46:19;;;;;;;2.85;1.85;;;;;;;;;;4330917;33;20230;-52
2022/09/24 12:48:48;;;;;;;2.85;2.03;;;;;;;;;;4337772;32;20247;-53
2022/09/24 12:51:21;;;;;;;4.45;2.53;;;;;;;;;;4359750;32;20333;-53
2022/09/24 12:53:57;;;;;;;2.55;1.77;;;;;;;;;;4360630;32;20257;-52
2022/09/24 12:56:28;;;;;;;3.08;2.20;;;;;;;;;;4360340;32;20292;-53
2022/09/24 12:58:56;;;;;;;3.92;2.53;;;;;;;;;;4360833;32;20211;-53
2022/09/24 13:01:29;;;;;;;4.07;2.17;;;;;;;;;;4360212;32;20234;-53
2022/09/24 13:04:25;;;;;;;2.50;1.30;;;;;;;;;;4360510;32;20288;-53
2022/09/24 13:06:52;;;;;;;8.10;1.67;;;;;;;;;;4338002;32;20271;-53
2022/09/24 13:09:39;;;;;;;3.10;2.00;;;;;;;;;;4330964;33;20285;-53
2022/09/24 13:12:20;;;;;;;3.12;2.03;;;;;;;;;;4330362;33;20289;-53
2022/09/24 13:14:56;;;;;;;2.45;2.00;;;;;;;;;;4331050;33;20219;-53
2022/09/24 13:17:24;;;;;;;4.18;2.28;;;;;;;;;;4335626;32;20297;-53
2022/09/24 13:19:57;;;;;;;5.32;1.85;;;;;;;;;;4345019;33;20313;-53
2022/09/24 13:22:28;;;;;;;4.05;2.28;;;;;;;;;;4345184;33;20825;-55
2022/09/24 13:25:21;;;;;;;5.28;2.20;;;;;;;;;;4345291;33;20233;-52
2022/09/24 13:28:00;;;;;;;2.92;1.85;;;;;;;;;;4345106;33;20290;-52
2022/09/24 13:30:35;;;;;;;2.75;1.50;;;;;;;;;;4344858;33;20270;-53
2022/09/24 13:33:11;;;;;;;1.42;1.23;;;;;;;;;;4345646;33;20364;-52
2022/09/24 13:35:45;;;;;;;3.05;1.87;;;;;;;;;;4345068;33;20540;-53
2022/09/24 13:38:20;;;;;;;3.55;1.50;;;;;;;;;;4345351;33;20218;-52
2022/09/24 13:40:55;;;;;;;3.53;1.48;;;;;;;;;;4345200;33;20206;-52
2022/09/24 13:43:36;;;;;;;3.58;2.05;;;;;;;;;;4344887;33;20231;-52
2022/09/24 13:46:07;;;;;;;2.90;1.90;;;;;;;;;;4345089;33;20224;-52
2022/09/24 13:48:37;;;;;;;2.80;1.83;;;;;;;;;;4347549;32;20227;-54
2022/09/24 13:51:09;;;;;;;4.47;2.05;;;;;;;;;;4359850;32;20260;-53
2022/09/24 13:53:40;;;;;;;2.72;1.50;;;;;;;;;;4359852;32;20255;-53
2022/09/24 13:56:14;;;;;;;1.30;1.15;;;;;;;;;;4359791;32;20268;-52
2022/09/24 13:58:42;;;;;;;1.80;1.20;;;;;;;;;;4359906;32;20281;-53
2022/09/24 14:01:15;;;;;;;2.10;1.55;;;;;;;;;;4359458;32;20234;-53
2022/09/24 14:03:51;;;;;;;2.87;1.87;;;;;;;;;;4360021;32;20607;-53
2022/09/24 14:06:21;;;;;;;2.42;1.73;;;;;;;;;;4351784;32;20289;-53
2022/09/24 14:08:48;;;;;;;3.30;1.50;;;;;;;;;;4344617;33;20258;-53
2022/09/24 14:11:18;;;;;;;3.35;1.98;;;;;;;;;;4344266;33;20242;-52
2022/09/24 14:13:46;;;;;;;2.42;2.00;;;;;;;;;;4344207;33;20219;-53
2022/09/24 14:16:16;;;;;;;3.10;2.37;;;;;;;;;;4343852;33;20331;-52
2022/09/24 14:18:43;;;;;;;11.38;2.40;;;;;;;;;;4344351;33;20310;-53
2022/09/24 14:21:13;;;;;;;2.53;1.45;;;;;;;;;;4344254;33;20248;-54
2022/09/24 14:23:46;;;;;;;11.55;6.00;;;;;;;;;;4344786;33;20291;-52
2022/09/24 14:26:22;;;;;;;4.12;2.80;;;;;;;;;;4344265;33;20691;-53
2022/09/24 14:28:51;;;;;;;3.35;2.10;;;;;;;;;;4344366;33;20245;-52
2022/09/24 14:31:18;;;;;;;2.55;2.03;;;;;;;;;;4344031;33;20251;-52
2022/09/24 14:33:45;;;;;;;2.15;1.70;;;;;;;;;;4344195;33;20265;-52
2022/09/24 14:36:14;;;;;;;3.17;2.53;;;;;;;;;;4343618;33;20338;-53
2022/09/24 14:38:49;;;;;;;6.75;5.05;;;;;;;;;;4344873;33;20310;-54
2022/09/24 14:41:19;;;;;;;4.07;1.73;;;;;;;;;;4343764;33;20231;-53
2022/09/24 14:43:49;;;;;;;4.93;2.97;;;;;;;;;;4343372;33;20208;-53
2022/09/24 14:46:21;;;;;;;4.10;2.40;;;;;;;;;;4343988;33;20273;-53
2022/09/24 14:48:50;;;;;;;2.42;1.98;;;;;;;;;;4347831;32;20234;-54
2022/09/24 14:51:27;;;;;;;3.20;2.30;;;;;;;;;;4358853;32;20256;-53
2022/09/24 14:53:59;;;;;;;3.25;2.35;;;;;;;;;;4358811;32;20297;-54
2022/09/24 14:56:29;;;;;;;4.07;1.70;;;;;;;;;;4358841;32;20238;-53
2022/09/24 14:58:56;;;;;;;2.97;2.00;;;;;;;;;;4359088;32;20269;-54
2022/09/24 15:01:30;;;;;;;2.55;1.87;;;;;;;;;;4358869;32;20237;-53
2022/09/24 15:03:59;;;;;;;5.28;1.90;;;;;;;;;;4358796;32;20264;-54
2022/09/24 15:06:27;;;;;;;4.72;2.50;;;;;;;;;;4341629;32;20302;-53